sensor_id;sensor_type;location;lat;lon;timestamp;pressure;altitude;pressure_sealevel;temperature;humidity
34065;BME280;20339;49.754;20.158;2023-04-01T00:01:44;94939.59;;;9.60;65.02
34065;BME280;20339;49.754;20.158;2023-04-01T00:04:18;94931.60;;;9.56;65.02
34065;BME280;20339;49.754;20.158;2023-04-01T00:07:12;94932.41;;;9.54;65.15
34065;BME280;20339;49.754;20.158;2023-04-01T00:09:48;94930.95;;;9.47;65.28
34065;BME280;20339;49.754;20.158;2023-04-01T00:12:22;94931.13;;;9.43;65.37
34065;BME280;20339;49.754;20.158;2023-04-01T00:14:55;94927.69;;;9.39;65.43
34065;BME280;20339;49.754;20.158;2023-04-01T00:17:24;94923.03;;;9.34;65.56
34065;BME280;20339;49.754;20.158;2023-04-01T00:20:16;94926.51;;;9.28;65.72
34065;BME280;20339;49.754;20.158;2023-04-01T00:25:44;94928.88;;;9.23;65.83
34065;BME280;20339;49.754;20.158;2023-04-01T00:28:30;94928.76;;;9.16;65.94
34065;BME280;20339;49.754;20.158;2023-04-01T00:31:11;94931.45;;;9.13;66.05
34065;BME280;20339;49.754;20.158;2023-04-01T00:34:00;94926.74;;;9.09;66.16
34065;BME280;20339;49.754;20.158;2023-04-01T00:36:55;94925.23;;;8.99;66.37
34065;BME280;20339;49.754;20.158;2023-04-01T00:39:33;94922.65;;;8.91;66.55
34065;BME280;20339;49.754;20.158;2023-04-01T00:42:10;94926.17;;;8.85;66.76
34065;BME280;20339;49.754;20.158;2023-04-01T00:44:47;94924.64;;;8.77;66.96
34065;BME280;20339;49.754;20.158;2023-04-01T00:47:32;94923.13;;;8.71;67.14
34065;BME280;20339;49.754;20.158;2023-04-01T00:50:17;94927.33;;;8.61;67.07
34065;BME280;20339;49.754;20.158;2023-04-01T00:53:03;94926.77;;;8.49;67.36
34065;BME280;20339;49.754;20.158;2023-04-01T00:55:42;94931.03;;;8.41;67.51
34065;BME280;20339;49.754;20.158;2023-04-01T00:58:20;94935.05;;;8.34;67.72
34065;BME280;20339;49.754;20.158;2023-04-01T01:00:52;94934.55;;;8.28;67.81
34065;BME280;20339;49.754;20.158;2023-04-01T01:03:48;94937.49;;;8.19;67.91
34065;BME280;20339;49.754;20.158;2023-04-01T01:09:28;94934.84;;;8.07;68.16
34065;BME280;20339;49.754;20.158;2023-04-01T01:12:11;94935.40;;;8.01;68.39
34065;BME280;20339;49.754;20.158;2023-04-01T01:17:54;94934.76;;;7.87;68.71
34065;BME280;20339;49.754;20.158;2023-04-01T01:21:04;94936.95;;;7.81;68.97
34065;BME280;20339;49.754;20.158;2023-04-01T01:27:07;94940.23;;;7.68;69.80
34065;BME280;20339;49.754;20.158;2023-04-01T01:30:16;94941.89;;;7.68;70.14
34065;BME280;20339;49.754;20.158;2023-04-01T01:39:34;94941.88;;;7.58;71.11
34065;BME280;20339;49.754;20.158;2023-04-01T01:42:14;94937.59;;;7.56;71.69
34065;BME280;20339;49.754;20.158;2023-04-01T01:44:49;94939.01;;;7.62;71.89
34065;BME280;20339;49.754;20.158;2023-04-01T01:47:44;94940.80;;;7.66;72.25
34065;BME280;20339;49.754;20.158;2023-04-01T01:50:32;94944.66;;;7.72;72.28
34065;BME280;20339;49.754;20.158;2023-04-01T01:53:16;94942.70;;;7.83;72.36
34065;BME280;20339;49.754;20.158;2023-04-01T01:56:03;94939.55;;;7.96;72.37
34065;BME280;20339;49.754;20.158;2023-04-01T01:58:43;94934.46;;;8.06;72.35
34065;BME280;20339;49.754;20.158;2023-04-01T02:01:33;94945.58;;;8.11;72.25
34065;BME280;20339;49.754;20.158;2023-04-01T02:04:34;94934.98;;;8.13;72.00
34065;BME280;20339;49.754;20.158;2023-04-01T02:07:27;94937.84;;;8.13;71.88
34065;BME280;20339;49.754;20.158;2023-04-01T02:13:16;94944.98;;;8.06;71.98
34065;BME280;20339;49.754;20.158;2023-04-01T02:16:02;94952.49;;;7.99;72.10
34065;BME280;20339;49.754;20.158;2023-04-01T02:18:47;94949.68;;;7.96;72.86
34065;BME280;20339;49.754;20.158;2023-04-01T02:21:26;94952.33;;;7.99;73.37
34065;BME280;20339;49.754;20.158;2023-04-01T02:24:10;94953.96;;;8.02;73.88
34065;BME280;20339;49.754;20.158;2023-04-01T02:27:02;94954.22;;;8.07;74.26
34065;BME280;20339;49.754;20.158;2023-04-01T02:29:46;94962.84;;;8.11;73.99
34065;BME280;20339;49.754;20.158;2023-04-01T02:32:19;94965.31;;;8.12;74.11
34065;BME280;20339;49.754;20.158;2023-04-01T02:35:02;94965.60;;;8.13;74.42
34065;BME280;20339;49.754;20.158;2023-04-01T02:37:35;94966.94;;;8.11;74.41
34065;BME280;20339;49.754;20.158;2023-04-01T02:40:18;94970.84;;;8.11;74.58
34065;BME280;20339;49.754;20.158;2023-04-01T02:42:53;94968.45;;;8.10;74.48
34065;BME280;20339;49.754;20.158;2023-04-01T02:45:45;94971.09;;;8.10;74.60
34065;BME280;20339;49.754;20.158;2023-04-01T02:48:21;94969.65;;;8.08;74.61
34065;BME280;20339;49.754;20.158;2023-04-01T02:50:53;94971.82;;;8.06;74.59
34065;BME280;20339;49.754;20.158;2023-04-01T02:53:27;94969.08;;;8.04;74.69
34065;BME280;20339;49.754;20.158;2023-04-01T02:56:14;94968.08;;;8.01;74.70
34065;BME280;20339;49.754;20.158;2023-04-01T02:58:56;94967.89;;;8.00;74.70
34065;BME280;20339;49.754;20.158;2023-04-01T03:01:31;94967.91;;;7.99;74.77
34065;BME280;20339;49.754;20.158;2023-04-01T03:04:04;94971.79;;;7.98;74.75
34065;BME280;20339;49.754;20.158;2023-04-01T03:09:43;94969.05;;;7.90;74.76
34065;BME280;20339;49.754;20.158;2023-04-01T03:12:29;94974.00;;;7.88;74.82
34065;BME280;20339;49.754;20.158;2023-04-01T03:14:59;94972.27;;;7.85;74.91
34065;BME280;20339;49.754;20.158;2023-04-01T03:17:41;94972.32;;;7.83;75.08
34065;BME280;20339;49.754;20.158;2023-04-01T03:20:32;94971.27;;;7.83;75.14
34065;BME280;20339;49.754;20.158;2023-04-01T03:26:24;94970.98;;;7.82;75.52
34065;BME280;20339;49.754;20.158;2023-04-01T03:29:00;94970.21;;;7.85;75.93
34065;BME280;20339;49.754;20.158;2023-04-01T03:32:06;94970.95;;;7.90;76.02
34065;BME280;20339;49.754;20.158;2023-04-01T03:34:41;94975.55;;;7.98;75.88
34065;BME280;20339;49.754;20.158;2023-04-01T03:37:29;94977.03;;;8.02;75.72
34065;BME280;20339;49.754;20.158;2023-04-01T03:40:13;94969.73;;;8.05;75.86
34065;BME280;20339;49.754;20.158;2023-04-01T03:42:50;94979.25;;;8.08;75.98
34065;BME280;20339;49.754;20.158;2023-04-01T03:45:21;94977.21;;;8.12;75.80
34065;BME280;20339;49.754;20.158;2023-04-01T03:47:54;94976.73;;;8.16;75.75
34065;BME280;20339;49.754;20.158;2023-04-01T03:50:27;94974.15;;;8.15;75.78
34065;BME280;20339;49.754;20.158;2023-04-01T03:55:50;94979.42;;;8.12;75.72
34065;BME280;20339;49.754;20.158;2023-04-01T03:58:37;94984.20;;;8.13;75.90
34065;BME280;20339;49.754;20.158;2023-04-01T04:01:26;94987.38;;;8.14;76.01
34065;BME280;20339;49.754;20.158;2023-04-01T04:04:04;94988.27;;;8.17;75.88
34065;BME280;20339;49.754;20.158;2023-04-01T04:09:37;94991.25;;;8.12;76.08
34065;BME280;20339;49.754;20.158;2023-04-01T04:12:17;94992.78;;;8.14;76.12
34065;BME280;20339;49.754;20.158;2023-04-01T04:17:59;94996.02;;;8.15;76.10
34065;BME280;20339;49.754;20.158;2023-04-01T04:20:46;94998.04;;;8.17;75.97
34065;BME280;20339;49.754;20.158;2023-04-01T04:23:35;95000.21;;;8.17;75.89
34065;BME280;20339;49.754;20.158;2023-04-01T04:26:26;94999.69;;;8.16;75.81
34065;BME280;20339;49.754;20.158;2023-04-01T04:35:04;94997.33;;;8.10;76.04
34065;BME280;20339;49.754;20.158;2023-04-01T04:38:02;94998.97;;;8.10;76.21
34065;BME280;20339;49.754;20.158;2023-04-01T04:43:33;94999.14;;;8.11;76.27
34065;BME280;20339;49.754;20.158;2023-04-01T04:46:28;94997.95;;;8.12;76.36
34065;BME280;20339;49.754;20.158;2023-04-01T04:57:57;94995.97;;;8.13;76.87
34065;BME280;20339;49.754;20.158;2023-04-01T05:00:35;94994.02;;;8.15;77.10
34065;BME280;20339;49.754;20.158;2023-04-01T05:09:36;94990.94;;;8.91;78.25
34065;BME280;20339;49.754;20.158;2023-04-01T05:12:30;94991.42;;;9.93;76.39
34065;BME280;20339;49.754;20.158;2023-04-01T05:15:07;94989.11;;;9.96;74.69
34065;BME280;20339;49.754;20.158;2023-04-01T05:17:53;94997.41;;;9.79;73.93
34065;BME280;20339;49.754;20.158;2023-04-01T05:20:57;94997.39;;;9.62;73.88
34065;BME280;20339;49.754;20.158;2023-04-01T05:23:31;94999.67;;;9.45;73.76
34065;BME280;20339;49.754;20.158;2023-04-01T05:26:11;95005.45;;;9.19;74.50
34065;BME280;20339;49.754;20.158;2023-04-01T05:28:48;95005.88;;;8.92;75.42
34065;BME280;20339;49.754;20.158;2023-04-01T05:31:22;95006.59;;;8.68;76.44
34065;BME280;20339;49.754;20.158;2023-04-01T05:34:07;95007.52;;;8.54;77.33
34065;BME280;20339;49.754;20.158;2023-04-01T05:36:45;95011.39;;;8.44;78.28
34065;BME280;20339;49.754;20.158;2023-04-01T05:39:19;95011.79;;;8.36;78.99
34065;BME280;20339;49.754;20.158;2023-04-01T05:42:00;95009.80;;;8.28;79.79
34065;BME280;20339;49.754;20.158;2023-04-01T05:47:31;95020.16;;;8.21;80.59
34065;BME280;20339;49.754;20.158;2023-04-01T05:50:24;95014.95;;;8.16;81.24
34065;BME280;20339;49.754;20.158;2023-04-01T05:53:11;95018.27;;;8.16;81.62
34065;BME280;20339;49.754;20.158;2023-04-01T05:55:47;95011.69;;;8.13;81.81
34065;BME280;20339;49.754;20.158;2023-04-01T05:58:34;95013.23;;;8.14;81.78
34065;BME280;20339;49.754;20.158;2023-04-01T06:01:16;95014.54;;;8.13;81.91
34065;BME280;20339;49.754;20.158;2023-04-01T06:03:59;95008.38;;;8.09;82.16
34065;BME280;20339;49.754;20.158;2023-04-01T06:06:47;95016.18;;;8.00;83.03
34065;BME280;20339;49.754;20.158;2023-04-01T06:09:33;95021.88;;;7.94;83.13
34065;BME280;20339;49.754;20.158;2023-04-01T06:12:38;95018.94;;;7.95;83.55
34065;BME280;20339;49.754;20.158;2023-04-01T06:15:24;95018.01;;;8.10;83.62
34065;BME280;20339;49.754;20.158;2023-04-01T06:21:33;95019.45;;;10.15;83.06
34065;BME280;20339;49.754;20.158;2023-04-01T06:24:48;95017.67;;;10.93;79.74
34065;BME280;20339;49.754;20.158;2023-04-01T06:27:36;95021.11;;;10.87;78.74
34065;BME280;20339;49.754;20.158;2023-04-01T06:30:32;95011.37;;;13.06;79.14
34065;BME280;20339;49.754;20.158;2023-04-01T06:36:39;95007.11;;;15.80;65.97
34065;BME280;20339;49.754;20.158;2023-04-01T06:46:00;95015.94;;;12.09;69.40
34065;BME280;20339;49.754;20.158;2023-04-01T06:49:12;95010.27;;;12.80;70.72
34065;BME280;20339;49.754;20.158;2023-04-01T06:52:16;95002.77;;;14.66;67.51
34065;BME280;20339;49.754;20.158;2023-04-01T06:55:31;95008.80;;;14.50;65.94
34065;BME280;20339;49.754;20.158;2023-04-01T06:58:26;95000.46;;;16.11;63.89
34065;BME280;20339;49.754;20.158;2023-04-01T07:01:03;94998.62;;;17.10;61.71
34065;BME280;20339;49.754;20.158;2023-04-01T07:03:56;94997.73;;;16.72;57.62
34065;BME280;20339;49.754;20.158;2023-04-01T07:06:50;94998.48;;;15.34;58.63
34065;BME280;20339;49.754;20.158;2023-04-01T07:09:33;94995.27;;;14.28;60.35
34065;BME280;20339;49.754;20.158;2023-04-01T07:12:07;94996.21;;;13.52;61.18
34065;BME280;20339;49.754;20.158;2023-04-01T07:14:57;94996.98;;;13.22;62.81
34065;BME280;20339;49.754;20.158;2023-04-01T07:17:41;94996.17;;;13.26;63.42
34065;BME280;20339;49.754;20.158;2023-04-01T07:20:33;94996.36;;;12.79;62.24
34065;BME280;20339;49.754;20.158;2023-04-01T07:23:13;95003.29;;;11.94;62.21
34065;BME280;20339;49.754;20.158;2023-04-01T07:25:58;95002.83;;;11.51;63.97
34065;BME280;20339;49.754;20.158;2023-04-01T07:28:34;95007.93;;;11.09;64.91
34065;BME280;20339;49.754;20.158;2023-04-01T07:31:19;95012.95;;;10.74;66.00
34065;BME280;20339;49.754;20.158;2023-04-01T07:34:04;95013.73;;;10.65;66.84
34065;BME280;20339;49.754;20.158;2023-04-01T07:36:51;95006.06;;;10.56;67.16
34065;BME280;20339;49.754;20.158;2023-04-01T07:39:40;95009.03;;;10.66;67.50
34065;BME280;20339;49.754;20.158;2023-04-01T07:42:36;95006.15;;;10.91;67.71
34065;BME280;20339;49.754;20.158;2023-04-01T07:45:18;95004.76;;;12.05;67.98
34065;BME280;20339;49.754;20.158;2023-04-01T07:48:06;95009.50;;;13.30;64.39
34065;BME280;20339;49.754;20.158;2023-04-01T07:50:52;95005.29;;;15.26;61.49
34065;BME280;20339;49.754;20.158;2023-04-01T07:53:42;95007.35;;;15.92;54.95
34065;BME280;20339;49.754;20.158;2023-04-01T07:56:42;95018.19;;;14.25;56.93
34065;BME280;20339;49.754;20.158;2023-04-01T08:02:14;95014.95;;;13.48;60.18
34065;BME280;20339;49.754;20.158;2023-04-01T08:04:53;95017.34;;;13.22;60.95
34065;BME280;20339;49.754;20.158;2023-04-01T08:07:25;95017.67;;;12.87;61.32
34065;BME280;20339;49.754;20.158;2023-04-01T08:10:11;95018.58;;;12.45;62.20
34065;BME280;20339;49.754;20.158;2023-04-01T08:12:50;95019.59;;;12.22;63.09
34065;BME280;20339;49.754;20.158;2023-04-01T08:15:31;95021.73;;;12.13;63.72
34065;BME280;20339;49.754;20.158;2023-04-01T08:18:14;95020.14;;;11.98;63.83
34065;BME280;20339;49.754;20.158;2023-04-01T08:20:56;95018.98;;;11.75;63.66
34065;BME280;20339;49.754;20.158;2023-04-01T08:23:38;95015.34;;;11.65;64.07
34065;BME280;20339;49.754;20.158;2023-04-01T08:26:17;95013.75;;;11.51;64.33
34065;BME280;20339;49.754;20.158;2023-04-01T08:29:00;95015.05;;;11.28;64.77
34065;BME280;20339;49.754;20.158;2023-04-01T08:31:48;95012.09;;;11.27;65.13
34065;BME280;20339;49.754;20.158;2023-04-01T08:34:23;95012.43;;;11.22;65.11
34065;BME280;20339;49.754;20.158;2023-04-01T08:36:58;95014.09;;;11.20;65.79
34065;BME280;20339;49.754;20.158;2023-04-01T08:39:33;95015.58;;;11.25;65.73
34065;BME280;20339;49.754;20.158;2023-04-01T08:42:35;95014.46;;;11.27;65.67
34065;BME280;20339;49.754;20.158;2023-04-01T08:45:36;95012.84;;;11.23;65.94
34065;BME280;20339;49.754;20.158;2023-04-01T08:54:47;95000.52;;;11.42;65.52
34065;BME280;20339;49.754;20.158;2023-04-01T08:57:40;95007.59;;;11.22;65.31
34065;BME280;20339;49.754;20.158;2023-04-01T09:00:24;95007.46;;;11.05;65.44
34065;BME280;20339;49.754;20.158;2023-04-01T09:06:22;95013.42;;;10.74;66.13
34065;BME280;20339;49.754;20.158;2023-04-01T09:09:19;95013.90;;;10.63;66.38
34065;BME280;20339;49.754;20.158;2023-04-01T09:12:15;95013.84;;;10.58;66.71
34065;BME280;20339;49.754;20.158;2023-04-01T09:21:46;95010.95;;;10.69;67.72
34065;BME280;20339;49.754;20.158;2023-04-01T09:24:52;95011.48;;;10.84;67.60
34065;BME280;20339;49.754;20.158;2023-04-01T09:27:34;95008.42;;;10.99;66.83
34065;BME280;20339;49.754;20.158;2023-04-01T09:30:41;95013.83;;;10.94;66.47
34065;BME280;20339;49.754;20.158;2023-04-01T09:33:53;95009.60;;;10.96;66.70
34065;BME280;20339;49.754;20.158;2023-04-01T09:36:49;95006.28;;;11.04;65.78
34065;BME280;20339;49.754;20.158;2023-04-01T09:39:36;95008.15;;;10.99;64.71
34065;BME280;20339;49.754;20.158;2023-04-01T09:42:29;95010.03;;;10.89;64.40
34065;BME280;20339;49.754;20.158;2023-04-01T09:45:07;95011.52;;;10.83;64.62
34065;BME280;20339;49.754;20.158;2023-04-01T09:47:50;95007.39;;;10.86;65.38
34065;BME280;20339;49.754;20.158;2023-04-01T09:50:41;95013.21;;;10.95;65.22
34065;BME280;20339;49.754;20.158;2023-04-01T09:53:35;95012.80;;;10.94;64.63
34065;BME280;20339;49.754;20.158;2023-04-01T09:56:43;95018.60;;;10.96;64.78
34065;BME280;20339;49.754;20.158;2023-04-01T09:59:44;95023.71;;;11.02;64.61
34065;BME280;20339;49.754;20.158;2023-04-01T10:02:49;95023.76;;;11.03;64.41
34065;BME280;20339;49.754;20.158;2023-04-01T10:09:10;95024.34;;;11.12;64.23
34065;BME280;20339;49.754;20.158;2023-04-01T10:15:16;95019.81;;;11.14;63.22
34065;BME280;20339;49.754;20.158;2023-04-01T10:21:33;95016.34;;;11.23;63.18
34065;BME280;20339;49.754;20.158;2023-04-01T10:24:41;95019.70;;;11.26;63.59
34065;BME280;20339;49.754;20.158;2023-04-01T10:33:41;95019.23;;;11.78;61.54
34065;BME280;20339;49.754;20.158;2023-04-01T10:36:46;95015.77;;;11.82;61.54
34065;BME280;20339;49.754;20.158;2023-04-01T10:39:44;95012.63;;;12.20;61.43
34065;BME280;20339;49.754;20.158;2023-04-01T10:45:58;95015.06;;;12.43;58.86
34065;BME280;20339;49.754;20.158;2023-04-01T10:52:17;95017.23;;;11.75;59.00
34065;BME280;20339;49.754;20.158;2023-04-01T10:55:09;95025.31;;;11.68;59.24
34065;BME280;20339;49.754;20.158;2023-04-01T10:58:20;95031.09;;;11.69;59.25
34065;BME280;20339;49.754;20.158;2023-04-01T11:01:33;95037.73;;;11.64;59.58
34065;BME280;20339;49.754;20.158;2023-04-01T11:11:52;95036.80;;;11.69;61.29
34065;BME280;20339;49.754;20.158;2023-04-01T11:24:21;95034.49;;;12.21;60.56
34065;BME280;20339;49.754;20.158;2023-04-01T11:27:11;95038.87;;;12.15;60.46
34065;BME280;20339;49.754;20.158;2023-04-01T11:30:01;95031.61;;;12.13;60.88
34065;BME280;20339;49.754;20.158;2023-04-01T11:32:43;95028.40;;;12.03;60.41
34065;BME280;20339;49.754;20.158;2023-04-01T11:38:58;95035.42;;;11.60;61.26
34065;BME280;20339;49.754;20.158;2023-04-01T11:41:47;95030.00;;;11.55;61.77
34065;BME280;20339;49.754;20.158;2023-04-01T11:44:23;95039.86;;;11.70;62.48
34065;BME280;20339;49.754;20.158;2023-04-01T11:47:27;95039.05;;;11.86;61.75
34065;BME280;20339;49.754;20.158;2023-04-01T11:50:18;95042.57;;;11.87;61.83
34065;BME280;20339;49.754;20.158;2023-04-01T11:53:12;95041.96;;;11.96;62.18
34065;BME280;20339;49.754;20.158;2023-04-01T11:55:58;95040.41;;;12.09;62.43
34065;BME280;20339;49.754;20.158;2023-04-01T12:01:51;95041.62;;;12.49;62.41
34065;BME280;20339;49.754;20.158;2023-04-01T12:04:54;95038.52;;;12.92;61.94
34065;BME280;20339;49.754;20.158;2023-04-01T12:10:51;95038.63;;;13.47;59.61
34065;BME280;20339;49.754;20.158;2023-04-01T12:13:35;95039.02;;;13.25;58.65
34065;BME280;20339;49.754;20.158;2023-04-01T12:19:28;95051.14;;;12.54;59.12
34065;BME280;20339;49.754;20.158;2023-04-01T12:22:37;95046.75;;;12.36;59.52
34065;BME280;20339;49.754;20.158;2023-04-01T12:28:18;95047.88;;;12.40;59.33
34065;BME280;20339;49.754;20.158;2023-04-01T12:31:19;95052.13;;;12.34;59.78
34065;BME280;20339;49.754;20.158;2023-04-01T12:37:16;95058.20;;;12.21;59.87
34065;BME280;20339;49.754;20.158;2023-04-01T12:40:29;95061.58;;;12.05;60.21
34065;BME280;20339;49.754;20.158;2023-04-01T12:43:26;95058.14;;;11.94;60.90
34065;BME280;20339;49.754;20.158;2023-04-01T12:46:14;95068.98;;;11.88;61.90
34065;BME280;20339;49.754;20.158;2023-04-01T12:49:30;95065.66;;;11.99;62.04
34065;BME280;20339;49.754;20.158;2023-04-01T12:52:10;95066.82;;;12.28;62.22
34065;BME280;20339;49.754;20.158;2023-04-01T12:55:21;95059.54;;;12.48;61.48
34065;BME280;20339;49.754;20.158;2023-04-01T13:11:06;95066.98;;;12.16;61.37
34065;BME280;20339;49.754;20.158;2023-04-01T13:16:55;95069.70;;;11.97;61.05
34065;BME280;20339;49.754;20.158;2023-04-01T13:19:34;95067.11;;;11.84;61.21
34065;BME280;20339;49.754;20.158;2023-04-01T13:22:11;95062.49;;;11.75;61.82
34065;BME280;20339;49.754;20.158;2023-04-01T13:24:54;95066.16;;;11.61;62.24
34065;BME280;20339;49.754;20.158;2023-04-01T13:27:43;95063.65;;;11.55;62.66
34065;BME280;20339;49.754;20.158;2023-04-01T13:30:25;95061.99;;;11.70;63.32
34065;BME280;20339;49.754;20.158;2023-04-01T13:33:13;95064.63;;;11.81;62.08
34065;BME280;20339;49.754;20.158;2023-04-01T13:35:48;95062.76;;;11.79;61.28
34065;BME280;20339;49.754;20.158;2023-04-01T13:38:44;95066.13;;;11.82;61.41
34065;BME280;20339;49.754;20.158;2023-04-01T13:41:29;95070.13;;;11.87;61.42
34065;BME280;20339;49.754;20.158;2023-04-01T13:44:09;95069.39;;;11.93;62.08
34065;BME280;20339;49.754;20.158;2023-04-01T13:46:58;95058.89;;;12.02;62.18
34065;BME280;20339;49.754;20.158;2023-04-01T13:56:32;95073.80;;;12.35;61.54
34065;BME280;20339;49.754;20.158;2023-04-01T14:05:40;95088.41;;;11.37;66.17
34065;BME280;20339;49.754;20.158;2023-04-01T14:08:26;95100.35;;;11.03;67.61
34065;BME280;20339;49.754;20.158;2023-04-01T14:11:13;95107.14;;;10.82;68.78
34065;BME280;20339;49.754;20.158;2023-04-01T14:13:56;95110.01;;;10.80;69.88
34065;BME280;20339;49.754;20.158;2023-04-01T14:22:37;95109.17;;;11.08;71.00
34065;BME280;20339;49.754;20.158;2023-04-01T14:25:25;95112.05;;;11.06;71.15
34065;BME280;20339;49.754;20.158;2023-04-01T14:28:22;95112.77;;;11.09;71.73
34065;BME280;20339;49.754;20.158;2023-04-01T14:34:15;95117.58;;;11.00;71.71
34065;BME280;20339;49.754;20.158;2023-04-01T14:37:03;95113.55;;;10.96;71.61
34065;BME280;20339;49.754;20.158;2023-04-01T14:43:04;95116.77;;;11.27;71.59
34065;BME280;20339;49.754;20.158;2023-04-01T14:46:00;95112.57;;;11.36;70.94
34065;BME280;20339;49.754;20.158;2023-04-01T14:48:49;95113.98;;;11.50;70.65
34065;BME280;20339;49.754;20.158;2023-04-01T14:51:39;95116.43;;;11.69;70.51
34065;BME280;20339;49.754;20.158;2023-04-01T14:54:14;95113.20;;;11.83;69.58
34065;BME280;20339;49.754;20.158;2023-04-01T14:57:14;95117.54;;;11.80;68.86
34065;BME280;20339;49.754;20.158;2023-04-01T14:59:53;95116.67;;;11.91;69.11
34065;BME280;20339;49.754;20.158;2023-04-01T15:02:48;95117.38;;;12.08;68.89
34065;BME280;20339;49.754;20.158;2023-04-01T15:05:42;95116.94;;;12.12;67.72
34065;BME280;20339;49.754;20.158;2023-04-01T15:08:23;95123.62;;;12.06;67.54
34065;BME280;20339;49.754;20.158;2023-04-01T15:11:22;95120.38;;;11.92;67.35
34065;BME280;20339;49.754;20.158;2023-04-01T15:14:19;95128.95;;;11.63;67.25
34065;BME280;20339;49.754;20.158;2023-04-01T15:17:05;95130.88;;;11.48;67.76
34065;BME280;20339;49.754;20.158;2023-04-01T15:20:08;95131.15;;;11.42;68.32
34065;BME280;20339;49.754;20.158;2023-04-01T15:22:57;95132.95;;;11.30;68.59
34065;BME280;20339;49.754;20.158;2023-04-01T15:25:45;95132.07;;;11.32;69.51
34065;BME280;20339;49.754;20.158;2023-04-01T15:28:42;95131.87;;;11.49;69.91
34065;BME280;20339;49.754;20.158;2023-04-01T15:31:21;95134.30;;;11.58;69.85
34065;BME280;20339;49.754;20.158;2023-04-01T15:34:00;95133.14;;;11.50;69.81
34065;BME280;20339;49.754;20.158;2023-04-01T15:36:42;95130.59;;;11.28;69.95
34065;BME280;20339;49.754;20.158;2023-04-01T15:39:22;95132.95;;;11.09;70.53
34065;BME280;20339;49.754;20.158;2023-04-01T15:42:13;95137.21;;;11.00;70.89
34065;BME280;20339;49.754;20.158;2023-04-01T15:45:00;95137.77;;;10.96;71.03
34065;BME280;20339;49.754;20.158;2023-04-01T15:47:40;95137.60;;;10.90;70.71
34065;BME280;20339;49.754;20.158;2023-04-01T15:53:30;95140.84;;;10.89;70.60
34065;BME280;20339;49.754;20.158;2023-04-01T15:56:23;95149.56;;;10.84;70.27
34065;BME280;20339;49.754;20.158;2023-04-01T15:59:06;95152.34;;;10.78;70.58
34065;BME280;20339;49.754;20.158;2023-04-01T16:01:46;95158.25;;;10.75;70.75
34065;BME280;20339;49.754;20.158;2023-04-01T16:04:47;95155.88;;;10.68;70.70
34065;BME280;20339;49.754;20.158;2023-04-01T16:10:50;95166.88;;;10.56;71.02
34065;BME280;20339;49.754;20.158;2023-04-01T16:13:33;95169.98;;;10.53;70.64
34065;BME280;20339;49.754;20.158;2023-04-01T16:16:13;95171.36;;;10.48;70.64
34065;BME280;20339;49.754;20.158;2023-04-01T16:18:56;95173.20;;;10.46;70.57
34065;BME280;20339;49.754;20.158;2023-04-01T16:21:41;95172.77;;;10.39;70.41
34065;BME280;20339;49.754;20.158;2023-04-01T16:24:22;95184.02;;;10.35;70.40
34065;BME280;20339;49.754;20.158;2023-04-01T16:27:00;95178.49;;;10.33;70.39
34065;BME280;20339;49.754;20.158;2023-04-01T16:29:40;95183.85;;;10.31;70.34
34065;BME280;20339;49.754;20.158;2023-04-01T16:32:35;95186.66;;;10.28;70.38
34065;BME280;20339;49.754;20.158;2023-04-01T16:35:28;95191.59;;;10.25;70.32
34065;BME280;20339;49.754;20.158;2023-04-01T16:38:13;95195.09;;;10.21;70.17
34065;BME280;20339;49.754;20.158;2023-04-01T16:40:50;95194.19;;;10.18;70.32
34065;BME280;20339;49.754;20.158;2023-04-01T16:43:30;95197.20;;;10.14;70.38
34065;BME280;20339;49.754;20.158;2023-04-01T16:46:30;95203.98;;;10.10;70.41
34065;BME280;20339;49.754;20.158;2023-04-01T16:49:09;95208.77;;;10.07;70.59
34065;BME280;20339;49.754;20.158;2023-04-01T16:51:52;95208.43;;;10.05;70.61
34065;BME280;20339;49.754;20.158;2023-04-01T16:54:35;95215.31;;;10.01;70.72
34065;BME280;20339;49.754;20.158;2023-04-01T16:57:19;95215.38;;;9.97;71.00
34065;BME280;20339;49.754;20.158;2023-04-01T16:59:58;95215.32;;;9.95;71.16
34065;BME280;20339;49.754;20.158;2023-04-01T17:02:43;95211.79;;;9.93;71.43
34065;BME280;20339;49.754;20.158;2023-04-01T17:05:17;95221.31;;;9.91;71.74
34065;BME280;20339;49.754;20.158;2023-04-01T17:07:54;95218.11;;;9.88;71.82
34065;BME280;20339;49.754;20.158;2023-04-01T17:10:46;95219.23;;;9.86;72.08
34065;BME280;20339;49.754;20.158;2023-04-01T17:13:43;95232.85;;;9.85;72.34
34065;BME280;20339;49.754;20.158;2023-04-01T17:16:32;95266.05;;;9.85;72.64
34065;BME280;20339;49.754;20.158;2023-04-01T17:19:13;95270.20;;;9.78;72.59
34065;BME280;20339;49.754;20.158;2023-04-01T17:21:56;95271.89;;;9.54;73.90
34065;BME280;20339;49.754;20.158;2023-04-01T17:24:45;95277.25;;;9.26;75.82
34065;BME280;20339;49.754;20.158;2023-04-01T17:27:28;95289.48;;;9.07;76.04
34065;BME280;20339;49.754;20.158;2023-04-01T17:30:15;95289.45;;;8.97;77.00
34065;BME280;20339;49.754;20.158;2023-04-01T17:32:58;95286.09;;;8.85;77.62
34065;BME280;20339;49.754;20.158;2023-04-01T17:35:33;95297.61;;;8.78;78.26
34065;BME280;20339;49.754;20.158;2023-04-01T17:38:20;95296.60;;;8.71;78.72
34065;BME280;20339;49.754;20.158;2023-04-01T17:41:04;95291.61;;;8.65;79.62
34065;BME280;20339;49.754;20.158;2023-04-01T17:43:41;95295.80;;;8.57;80.44
34065;BME280;20339;49.754;20.158;2023-04-01T17:46:30;95303.00;;;8.49;80.66
34065;BME280;20339;49.754;20.158;2023-04-01T17:49:07;95308.55;;;8.46;81.07
34065;BME280;20339;49.754;20.158;2023-04-01T17:51:46;95309.68;;;8.48;81.36
34065;BME280;20339;49.754;20.158;2023-04-01T17:54:26;95312.91;;;8.45;81.85
34065;BME280;20339;49.754;20.158;2023-04-01T17:57:09;95318.58;;;8.38;82.12
34065;BME280;20339;49.754;20.158;2023-04-01T17:59:56;95318.23;;;8.35;82.47